Time;durP1;ratioP1;P1;durP2;ratioP2;P2;SDS_P1;SDS_P2;PMS_P1;PMS_P2;Temp;Humidity;BMP_temperature;BMP_pressure;BME280_temperature;BME280_humidity;BME280_pressure;Samples;Min_cycle;Max_cycle;Signal;HPM_P1;HPM_P2
2023/12/11 00:00:13;;;;;;;1.43;0.60;;;;;;;;;;495364;27;909;-70
2023/12/11 00:00:29;;;;;;;1.67;0.60;;;;;;;;;;496280;27;1055;-70
2023/12/11 00:00:45;;;;;;;1.93;0.60;;;;;;;;;;493419;27;1525;-70
2023/12/11 00:01:00;;;;;;;1.23;0.57;;;;;;;;;;493569;27;928;-70
2023/12/11 00:01:16;;;;;;;1.10;0.50;;;;;;;;;;491941;27;1041;-70
2023/12/11 00:01:35;;;;;;;1.87;0.50;;;;;;;;;;493513;27;963;-70
2023/12/11 00:01:51;;;;;;;1.63;0.50;;;;;;;;;;493325;27;1142;-70
2023/12/11 00:02:06;;;;;;;1.50;0.50;;;;;;;;;;493364;27;1209;-70
2023/12/11 00:02:21;;;;;;;1.43;0.50;;;;;;;;;;494007;27;1545;-70
2023/12/11 00:02:37;;;;;;;1.10;0.50;;;;;;;;;;494666;27;1054;-70
2023/12/11 00:02:53;;;;;;;1.70;0.50;;;;;;;;;;495463;27;1193;-70
2023/12/11 00:03:08;;;;;;;2.00;0.50;;;;;;;;;;495686;27;1065;-70
2023/12/11 00:03:25;;;;;;;1.60;0.50;;;;;;;;;;495411;27;1091;-70
2023/12/11 00:03:40;;;;;;;1.08;0.45;;;;;;;;;;493037;27;2064;-70
2023/12/11 00:03:56;;;;;;;1.10;0.40;;;;;;;;;;494275;27;1381;-70
2023/12/11 00:04:11;;;;;;;1.50;0.50;;;;;;;;;;493471;27;1005;-70
2023/12/11 00:04:27;;;;;;;1.02;0.40;;;;;;;;;;493801;27;967;-70
2023/12/11 00:04:43;;;;;;;1.40;0.50;;;;;;;;;;493360;27;1344;-70
2023/12/11 00:04:58;;;;;;;2.07;0.53;;;;;;;;;;492986;27;1009;-70
2023/12/11 00:05:14;;;;;;;1.70;0.50;;;;;;;;;;490164;28;1217;-70
2023/12/11 00:05:29;;;;;;;1.43;0.60;;;;;;;;;;491032;28;1049;-71
2023/12/11 00:05:45;;;;;;;1.50;0.50;;;;;;;;;;490533;28;1258;-70
2023/12/11 00:06:01;;;;;;;1.17;0.40;;;;;;;;;;491943;28;1092;-70
2023/12/11 00:06:16;;;;;;;1.40;0.50;;;;;;;;;;491479;28;1096;-70
2023/12/11 00:06:32;;;;;;;1.95;0.60;;;;;;;;;;491924;27;983;-70
2023/12/11 00:06:47;;;;;;;2.53;0.63;;;;;;;;;;492220;28;1267;-70
2023/12/11 00:07:03;;;;;;;2.20;0.57;;;;;;;;;;490190;28;1309;-70
2023/12/11 00:07:18;;;;;;;1.43;0.50;;;;;;;;;;492299;27;949;-70
2023/12/11 00:07:34;;;;;;;1.45;0.50;;;;;;;;;;493089;27;1115;-70
2023/12/11 00:07:49;;;;;;;1.70;0.50;;;;;;;;;;491587;27;1326;-70
2023/12/11 00:08:05;;;;;;;1.88;0.50;;;;;;;;;;492312;27;1048;-69
2023/12/11 00:08:21;;;;;;;1.77;0.57;;;;;;;;;;492445;27;1055;-71
2023/12/11 00:08:36;;;;;;;1.60;0.60;;;;;;;;;;492680;27;1162;-70
2023/12/11 00:08:52;;;;;;;1.42;0.60;;;;;;;;;;492229;27;1230;-70
2023/12/11 00:09:07;;;;;;;1.23;0.60;;;;;;;;;;491418;28;1217;-70
2023/12/11 00:09:23;;;;;;;1.88;0.55;;;;;;;;;;491991;28;1107;-70
2023/12/11 00:09:38;;;;;;;2.17;0.50;;;;;;;;;;489263;28;1139;-69
2023/12/11 00:09:54;;;;;;;1.45;0.45;;;;;;;;;;487636;28;1403;-70
2023/12/11 00:10:09;;;;;;;1.63;0.50;;;;;;;;;;488839;28;1064;-70
2023/12/11 00:10:25;;;;;;;1.80;0.40;;;;;;;;;;488605;28;988;-70
2023/12/11 00:10:41;;;;;;;1.50;0.50;;;;;;;;;;489283;28;932;-70
2023/12/11 00:10:56;;;;;;;1.33;0.50;;;;;;;;;;490967;27;968;-70
2023/12/11 00:11:12;;;;;;;1.23;0.55;;;;;;;;;;492486;27;1064;-70
2023/12/11 00:11:28;;;;;;;1.98;0.65;;;;;;;;;;490671;28;1114;-70
2023/12/11 00:11:43;;;;;;;1.77;0.47;;;;;;;;;;492094;27;1128;-70
2023/12/11 00:11:59;;;;;;;1.02;0.40;;;;;;;;;;494210;27;1073;-70
2023/12/11 00:12:15;;;;;;;1.00;0.30;;;;;;;;;;494261;27;1229;-70
2023/12/11 00:12:31;;;;;;;2.10;0.50;;;;;;;;;;493939;27;1147;-70
2023/12/11 00:12:46;;;;;;;1.87;0.50;;;;;;;;;;494212;27;2002;-70
2023/12/11 00:13:03;;;;;;;1.08;0.40;;;;;;;;;;493123;27;1036;-70
2023/12/11 00:13:18;;;;;;;1.10;0.50;;;;;;;;;;493620;27;1031;-70
2023/12/11 00:13:34;;;;;;;1.15;0.50;;;;;;;;;;493542;27;940;-70
2023/12/11 00:13:49;;;;;;;1.43;0.53;;;;;;;;;;492874;27;1107;-70
2023/12/11 00:14:06;;;;;;;1.92;0.50;;;;;;;;;;493245;27;1363;-70
2023/12/11 00:14:21;;;;;;;2.20;0.50;;;;;;;;;;491811;28;1623;-70
2023/12/11 00:14:37;;;;;;;2.28;0.50;;;;;;;;;;489212;28;1178;-70
2023/12/11 00:14:52;;;;;;;2.00;0.50;;;;;;;;;;489264;28;1132;-70
2023/12/11 00:15:10;;;;;;;0.90;0.40;;;;;;;;;;487741;28;1399;-70
2023/12/11 00:15:25;;;;;;;1.02;0.43;;;;;;;;;;487628;28;1224;-70
2023/12/11 00:15:41;;;;;;;1.17;0.47;;;;;;;;;;487697;28;1311;-70
2023/12/11 00:15:56;;;;;;;1.10;0.50;;;;;;;;;;486390;28;1089;-70
2023/12/11 00:16:12;;;;;;;1.23;0.43;;;;;;;;;;488083;28;950;-70
2023/12/11 00:16:27;;;;;;;1.90;0.40;;;;;;;;;;490633;28;1053;-70
2023/12/11 00:16:44;;;;;;;1.77;0.50;;;;;;;;;;491118;28;1092;-70
2023/12/11 00:16:59;;;;;;;2.13;0.50;;;;;;;;;;491618;27;1091;-70
2023/12/11 00:17:15;;;;;;;2.35;0.55;;;;;;;;;;493833;27;1067;-70
2023/12/11 00:17:30;;;;;;;1.75;0.50;;;;;;;;;;494048;27;992;-70
2023/12/11 00:17:46;;;;;;;1.43;0.50;;;;;;;;;;493339;27;1237;-70
2023/12/11 00:18:01;;;;;;;1.77;0.50;;;;;;;;;;493604;27;1091;-70
2023/12/11 00:18:17;;;;;;;2.27;0.50;;;;;;;;;;494029;27;1024;-70
2023/12/11 00:18:32;;;;;;;2.15;0.50;;;;;;;;;;492627;27;1148;-70
2023/12/11 00:18:51;;;;;;;1.90;0.50;;;;;;;;;;493779;27;1040;-70
2023/12/11 00:19:07;;;;;;;1.73;0.40;;;;;;;;;;494178;27;1126;-70
2023/12/11 00:19:23;;;;;;;1.63;0.40;;;;;;;;;;493395;27;1147;-70
2023/12/11 00:19:38;;;;;;;1.63;0.55;;;;;;;;;;494211;27;1040;-70
2023/12/11 00:19:54;;;;;;;1.70;0.63;;;;;;;;;;496510;27;1130;-70
2023/12/11 00:20:10;;;;;;;1.90;0.55;;;;;;;;;;496192;27;923;-70
2023/12/11 00:20:25;;;;;;;1.65;0.50;;;;;;;;;;496036;27;1003;-71
2023/12/11 00:20:41;;;;;;;1.37;0.53;;;;;;;;;;496281;27;948;-70
2023/12/11 00:20:56;;;;;;;1.80;0.60;;;;;;;;;;493449;27;1123;-70
2023/12/11 00:21:12;;;;;;;2.10;0.53;;;;;;;;;;493669;27;1394;-70
2023/12/11 00:21:27;;;;;;;2.85;0.57;;;;;;;;;;493586;27;1385;-70
2023/12/11 00:21:43;;;;;;;3.03;0.60;;;;;;;;;;494459;27;967;-71
2023/12/11 00:21:58;;;;;;;2.65;0.60;;;;;;;;;;493530;27;920;-70
2023/12/11 00:22:14;;;;;;;2.57;0.67;;;;;;;;;;494111;27;978;-70
2023/12/11 00:22:29;;;;;;;1.70;0.60;;;;;;;;;;494013;27;1079;-70
2023/12/11 00:22:45;;;;;;;1.23;0.50;;;;;;;;;;493452;27;1095;-70
2023/12/11 00:23:00;;;;;;;1.80;0.50;;;;;;;;;;492197;27;1194;-70
2023/12/11 00:23:16;;;;;;;2.07;0.57;;;;;;;;;;491607;27;1157;-71
2023/12/11 00:23:31;;;;;;;2.08;0.52;;;;;;;;;;492463;27;1147;-70
2023/12/11 00:23:47;;;;;;;2.10;0.50;;;;;;;;;;490492;28;1210;-70
2023/12/11 00:24:03;;;;;;;2.08;0.50;;;;;;;;;;490412;28;925;-70
2023/12/11 00:24:19;;;;;;;1.75;0.50;;;;;;;;;;490438;28;1055;-70
2023/12/11 00:24:35;;;;;;;2.58;0.60;;;;;;;;;;488559;28;1270;-70
2023/12/11 00:24:50;;;;;;;2.77;0.60;;;;;;;;;;488982;28;1333;-70
2023/12/11 00:25:06;;;;;;;3.22;0.70;;;;;;;;;;489280;28;1371;-70
2023/12/11 00:25:21;;;;;;;2.97;0.70;;;;;;;;;;489838;28;1206;-70
2023/12/11 00:25:37;;;;;;;1.83;0.67;;;;;;;;;;488967;28;1300;-70
2023/12/11 00:25:52;;;;;;;2.42;0.65;;;;;;;;;;489380;28;1434;-70
2023/12/11 00:26:08;;;;;;;1.97;0.60;;;;;;;;;;490065;28;968;-70
2023/12/11 00:26:24;;;;;;;1.52;0.60;;;;;;;;;;490266;28;1037;-70
2023/12/11 00:26:39;;;;;;;1.77;0.50;;;;;;;;;;491487;28;1286;-70
2023/12/11 00:26:55;;;;;;;1.43;0.60;;;;;;;;;;492022;28;1242;-70
2023/12/11 00:27:13;;;;;;;1.90;0.60;;;;;;;;;;491959;28;942;-70
2023/12/11 00:27:29;;;;;;;2.15;0.50;;;;;;;;;;493223;27;1360;-70
2023/12/11 00:27:44;;;;;;;2.72;0.60;;;;;;;;;;491251;28;1098;-70
2023/12/11 00:28:00;;;;;;;2.77;0.60;;;;;;;;;;491371;28;965;-70
2023/12/11 00:28:17;;;;;;;2.08;0.52;;;;;;;;;;492157;28;1212;-70
2023/12/11 00:28:32;;;;;;;2.25;0.60;;;;;;;;;;490367;28;1381;-70
2023/12/11 00:28:48;;;;;;;2.33;0.60;;;;;;;;;;491518;27;949;-70
2023/12/11 00:29:04;;;;;;;2.30;0.55;;;;;;;;;;490782;28;1274;-70
2023/12/11 00:29:19;;;;;;;2.35;0.50;;;;;;;;;;490515;28;1447;-70
2023/12/11 00:29:36;;;;;;;2.67;0.60;;;;;;;;;;491416;28;991;-72
2023/12/11 00:29:51;;;;;;;2.33;0.70;;;;;;;;;;490876;28;1266;-70
2023/12/11 00:30:07;;;;;;;2.50;0.60;;;;;;;;;;492202;28;1049;-70
2023/12/11 00:30:22;;;;;;;2.47;0.70;;;;;;;;;;488519;28;1058;-70
2023/12/11 00:30:38;;;;;;;2.17;0.60;;;;;;;;;;488736;28;1062;-70
2023/12/11 00:30:54;;;;;;;2.20;0.50;;;;;;;;;;487902;28;1064;-70
2023/12/11 00:31:09;;;;;;;1.67;0.50;;;;;;;;;;488763;28;1157;-70
2023/12/11 00:31:25;;;;;;;1.53;0.50;;;;;;;;;;491711;28;1163;-70
2023/12/11 00:31:40;;;;;;;1.80;0.60;;;;;;;;;;491924;28;1206;-70
2023/12/11 00:31:56;;;;;;;1.33;0.60;;;;;;;;;;490623;27;1230;-70
2023/12/11 00:32:11;;;;;;;1.48;0.55;;;;;;;;;;491083;27;1239;-70
2023/12/11 00:32:27;;;;;;;1.80;0.60;;;;;;;;;;495707;27;1080;-70
2023/12/11 00:32:43;;;;;;;2.20;0.60;;;;;;;;;;494200;27;1974;-70
2023/12/11 00:32:58;;;;;;;1.80;0.60;;;;;;;;;;492529;27;1191;-70
2023/12/11 00:33:14;;;;;;;1.35;0.50;;;;;;;;;;493000;27;949;-70
2023/12/11 00:33:29;;;;;;;1.93;0.50;;;;;;;;;;493669;27;1150;-70
2023/12/11 00:33:45;;;;;;;2.08;0.60;;;;;;;;;;494014;27;1127;-70
2023/12/11 00:34:01;;;;;;;1.23;0.60;;;;;;;;;;493135;27;1115;-70
2023/12/11 00:34:16;;;;;;;1.60;0.57;;;;;;;;;;493557;27;1142;-70
2023/12/11 00:34:32;;;;;;;2.27;0.57;;;;;;;;;;492910;27;1223;-70
2023/12/11 00:34:48;;;;;;;2.10;0.70;;;;;;;;;;495755;27;1068;-70
2023/12/11 00:35:04;;;;;;;1.50;0.63;;;;;;;;;;496536;27;1079;-70
2023/12/11 00:35:19;;;;;;;1.63;0.60;;;;;;;;;;496000;27;940;-70
2023/12/11 00:35:35;;;;;;;1.73;0.60;;;;;;;;;;493383;27;1241;-70
2023/12/11 00:35:50;;;;;;;1.52;0.50;;;;;;;;;;492777;27;979;-70
2023/12/11 00:36:06;;;;;;;1.83;0.50;;;;;;;;;;490435;27;1027;-70
2023/12/11 00:36:21;;;;;;;1.88;0.50;;;;;;;;;;492494;27;1364;-70
2023/12/11 00:36:37;;;;;;;1.48;0.50;;;;;;;;;;491467;27;1104;-70
2023/12/11 00:36:52;;;;;;;2.37;0.60;;;;;;;;;;491784;27;1043;-70
2023/12/11 00:37:08;;;;;;;3.22;0.70;;;;;;;;;;492362;27;1037;-70
2023/12/11 00:37:23;;;;;;;2.30;0.60;;;;;;;;;;493265;27;913;-70
2023/12/11 00:37:39;;;;;;;1.50;0.50;;;;;;;;;;493224;27;1048;-70
2023/12/11 00:37:54;;;;;;;1.77;0.50;;;;;;;;;;493744;27;1037;-70
2023/12/11 00:38:10;;;;;;;2.10;0.50;;;;;;;;;;492895;27;1383;-70
2023/12/11 00:38:25;;;;;;;2.00;0.60;;;;;;;;;;492082;28;1531;-70
2023/12/11 00:38:41;;;;;;;1.80;0.60;;;;;;;;;;490912;28;907;-70
2023/12/11 00:38:56;;;;;;;2.03;0.70;;;;;;;;;;491038;28;1072;-70
2023/12/11 00:39:15;;;;;;;2.27;0.70;;;;;;;;;;491565;28;1088;-70
2023/12/11 00:39:31;;;;;;;2.75;0.68;;;;;;;;;;488984;28;1386;-70
2023/12/11 00:39:46;;;;;;;2.75;0.60;;;;;;;;;;490084;28;925;-70
2023/12/11 00:40:02;;;;;;;1.80;0.50;;;;;;;;;;490774;28;1085;-70
2023/12/11 00:40:17;;;;;;;2.30;0.52;;;;;;;;;;492269;27;1042;-70
2023/12/11 00:40:33;;;;;;;2.50;0.60;;;;;;;;;;491513;28;1300;-70
2023/12/11 00:40:50;;;;;;;1.83;0.63;;;;;;;;;;491652;28;931;-70
2023/12/11 00:41:07;;;;;;;1.90;0.65;;;;;;;;;;491098;28;1049;-70
2023/12/11 00:41:22;;;;;;;2.03;0.57;;;;;;;;;;492281;28;1250;-70
2023/12/11 00:41:38;;;;;;;2.23;0.60;;;;;;;;;;492509;27;909;-70
2023/12/11 00:41:53;;;;;;;2.10;0.60;;;;;;;;;;493641;27;987;-70
2023/12/11 00:42:09;;;;;;;1.60;0.50;;;;;;;;;;493164;27;964;-70
2023/12/11 00:42:24;;;;;;;1.48;0.50;;;;;;;;;;493770;27;1067;-70
2023/12/11 00:42:40;;;;;;;1.60;0.50;;;;;;;;;;493724;27;1040;-70
2023/12/11 00:42:55;;;;;;;1.77;0.60;;;;;;;;;;492041;28;1285;-70
2023/12/11 00:43:11;;;;;;;1.60;0.60;;;;;;;;;;492020;27;961;-70
2023/12/11 00:43:26;;;;;;;1.63;0.50;;;;;;;;;;493531;27;1107;-70
2023/12/11 00:43:42;;;;;;;1.67;0.52;;;;;;;;;;491301;28;1302;-70
2023/12/11 00:43:57;;;;;;;1.87;0.63;;;;;;;;;;491709;28;1307;-70
2023/12/11 00:44:13;;;;;;;2.08;0.65;;;;;;;;;;490711;28;936;-70
2023/12/11 00:44:28;;;;;;;2.40;0.60;;;;;;;;;;492127;28;1139;-70
2023/12/11 00:44:44;;;;;;;2.75;0.70;;;;;;;;;;491808;27;1088;-70
2023/12/11 00:44:59;;;;;;;2.33;0.77;;;;;;;;;;493563;27;1494;-70
2023/12/11 00:45:15;;;;;;;2.33;0.73;;;;;;;;;;491554;28;1281;-70
2023/12/11 00:45:31;;;;;;;2.67;0.70;;;;;;;;;;492016;27;1159;-70
2023/12/11 00:45:46;;;;;;;2.17;0.70;;;;;;;;;;493292;27;950;-70
2023/12/11 00:46:02;;;;;;;1.88;0.60;;;;;;;;;;494477;27;1149;-70
2023/12/11 00:46:21;;;;;;;2.20;0.60;;;;;;;;;;493563;27;1103;-70
2023/12/11 00:46:37;;;;;;;2.22;0.70;;;;;;;;;;494025;27;1072;-70
2023/12/11 00:46:52;;;;;;;2.30;0.70;;;;;;;;;;490462;28;1374;-70
2023/12/11 00:47:08;;;;;;;2.30;0.60;;;;;;;;;;492391;27;910;-70
2023/12/11 00:47:23;;;;;;;1.93;0.60;;;;;;;;;;493504;27;948;-70
2023/12/11 00:47:39;;;;;;;1.77;0.60;;;;;;;;;;493845;27;999;-70
2023/12/11 00:47:54;;;;;;;1.90;0.60;;;;;;;;;;493979;27;1092;-70
2023/12/11 00:48:10;;;;;;;1.80;0.70;;;;;;;;;;492310;27;1165;-70
2023/12/11 00:48:26;;;;;;;1.95;0.70;;;;;;;;;;491209;28;1518;-70
2023/12/11 00:48:41;;;;;;;2.00;0.70;;;;;;;;;;491136;28;1029;-70
2023/12/11 00:48:57;;;;;;;1.92;0.70;;;;;;;;;;491851;28;1004;-70
2023/12/11 00:49:12;;;;;;;1.87;0.63;;;;;;;;;;491320;28;1068;-70
2023/12/11 00:49:28;;;;;;;2.20;0.70;;;;;;;;;;492199;28;1033;-70
2023/12/11 00:49:43;;;;;;;2.33;0.60;;;;;;;;;;491848;28;983;-70
2023/12/11 00:49:58;;;;;;;2.40;0.60;;;;;;;;;;489828;28;1286;-70
2023/12/11 00:50:14;;;;;;;2.57;0.63;;;;;;;;;;491781;28;999;-70
2023/12/11 00:50:29;;;;;;;2.20;0.60;;;;;;;;;;493983;27;1175;-70
2023/12/11 00:50:45;;;;;;;2.40;0.60;;;;;;;;;;492487;27;1435;-70
2023/12/11 00:51:00;;;;;;;2.42;0.60;;;;;;;;;;493821;27;1044;-70
2023/12/11 00:51:20;;;;;;;2.33;0.50;;;;;;;;;;493903;27;1253;-70
2023/12/11 00:51:36;;;;;;;2.13;0.50;;;;;;;;;;493453;27;1220;-70
2023/12/11 00:51:52;;;;;;;1.70;0.60;;;;;;;;;;492721;27;1170;-70
2023/12/11 00:52:08;;;;;;;2.65;0.60;;;;;;;;;;492325;27;1180;-70
2023/12/11 00:52:23;;;;;;;2.92;0.63;;;;;;;;;;493138;27;922;-70
2023/12/11 00:52:39;;;;;;;1.70;0.60;;;;;;;;;;492937;27;1961;-70
2023/12/11 00:52:54;;;;;;;1.40;0.50;;;;;;;;;;490713;28;1238;-70
2023/12/11 00:53:10;;;;;;;1.87;0.57;;;;;;;;;;490344;28;1341;-70
2023/12/11 00:53:25;;;;;;;2.10;0.70;;;;;;;;;;490532;28;1022;-70
2023/12/11 00:53:41;;;;;;;2.17;0.70;;;;;;;;;;491333;27;978;-70
2023/12/11 00:53:56;;;;;;;2.10;0.70;;;;;;;;;;493296;27;967;-70
2023/12/11 00:54:12;;;;;;;2.17;0.70;;;;;;;;;;492842;27;1137;-70
2023/12/11 00:54:27;;;;;;;2.23;0.60;;;;;;;;;;491900;27;1052;-70
2023/12/11 00:54:43;;;;;;;2.67;0.70;;;;;;;;;;493294;27;999;-70
2023/12/11 00:54:59;;;;;;;2.87;0.73;;;;;;;;;;493545;27;1072;-71
2023/12/11 00:55:14;;;;;;;2.13;0.60;;;;;;;;;;495830;27;986;-70
2023/12/11 00:55:30;;;;;;;1.90;0.60;;;;;;;;;;496416;27;1059;-70
2023/12/11 00:55:45;;;;;;;1.97;0.60;;;;;;;;;;495049;27;1039;-70
2023/12/11 00:56:01;;;;;;;2.13;0.70;;;;;;;;;;493372;27;1195;-70
2023/12/11 00:56:16;;;;;;;2.33;0.77;;;;;;;;;;493243;27;1274;-70
2023/12/11 00:56:32;;;;;;;2.45;0.75;;;;;;;;;;493356;27;1012;-70
2023/12/11 00:56:47;;;;;;;3.47;0.83;;;;;;;;;;493327;27;1052;-70
2023/12/11 00:57:03;;;;;;;3.17;0.80;;;;;;;;;;493788;27;948;-70
2023/12/11 00:57:18;;;;;;;2.47;0.70;;;;;;;;;;493283;27;1060;-70
2023/12/11 00:57:34;;;;;;;2.38;0.70;;;;;;;;;;494121;27;1365;-70
2023/12/11 00:57:49;;;;;;;2.03;0.60;;;;;;;;;;494018;27;940;-70
2023/12/11 00:58:05;;;;;;;1.93;0.50;;;;;;;;;;493989;27;1240;-70
2023/12/11 00:58:20;;;;;;;1.67;0.55;;;;;;;;;;495857;27;1071;-70
2023/12/11 00:58:36;;;;;;;2.37;0.70;;;;;;;;;;495916;27;1137;-70
2023/12/11 00:58:51;;;;;;;3.17;0.70;;;;;;;;;;494754;27;1404;-70
2023/12/11 00:59:07;;;;;;;3.75;0.70;;;;;;;;;;493481;27;1289;-70
2023/12/11 00:59:22;;;;;;;4.07;0.70;;;;;;;;;;491900;28;1221;-70
2023/12/11 00:59:39;;;;;;;3.17;0.65;;;;;;;;;;492406;28;909;-70
2023/12/11 00:59:54;;;;;;;2.75;0.70;;;;;;;;;;491910;28;1004;-70
2023/12/11 01:00:10;;;;;;;2.17;0.70;;;;;;;;;;491668;28;957;-70
2023/12/11 01:00:25;;;;;;;2.42;0.80;;;;;;;;;;491765;28;1064;-69
2023/12/11 01:00:41;;;;;;;2.77;0.87;;;;;;;;;;490488;28;1233;-70
2023/12/11 01:00:56;;;;;;;2.08;0.70;;;;;;;;;;488957;28;1280;-70
2023/12/11 01:01:12;;;;;;;1.60;0.60;;;;;;;;;;492275;27;922;-70
2023/12/11 01:01:28;;;;;;;1.92;0.70;;;;;;;;;;494283;27;929;-70
2023/12/11 01:01:43;;;;;;;2.17;0.70;;;;;;;;;;491436;28;1182;-70
2023/12/11 01:01:59;;;;;;;2.08;0.70;;;;;;;;;;489126;28;1155;-70
2023/12/11 01:02:14;;;;;;;1.87;0.70;;;;;;;;;;489169;28;1234;-70
2023/12/11 01:02:30;;;;;;;1.77;0.70;;;;;;;;;;489533;28;1076;-70
2023/12/11 01:02:45;;;;;;;1.60;0.60;;;;;;;;;;487741;28;1230;-70
2023/12/11 01:03:02;;;;;;;2.35;0.70;;;;;;;;;;489353;28;1037;-70
2023/12/11 01:03:18;;;;;;;3.42;0.90;;;;;;;;;;489918;28;1120;-70
2023/12/11 01:03:35;;;;;;;2.83;0.80;;;;;;;;;;487595;28;1413;-70
2023/12/11 01:03:51;;;;;;;2.47;0.70;;;;;;;;;;490097;28;1051;-70
2023/12/11 01:04:06;;;;;;;3.00;0.90;;;;;;;;;;491377;28;1119;-70
2023/12/11 01:04:22;;;;;;;2.60;0.83;;;;;;;;;;489313;28;1381;-70
2023/12/11 01:04:37;;;;;;;2.22;0.60;;;;;;;;;;490360;28;997;-70
2023/12/11 01:04:53;;;;;;;2.70;0.70;;;;;;;;;;492116;28;980;-70
2023/12/11 01:05:09;;;;;;;2.85;0.80;;;;;;;;;;491383;28;1135;-70
2023/12/11 01:05:25;;;;;;;2.65;0.70;;;;;;;;;;490183;28;1722;-70
2023/12/11 01:05:41;;;;;;;2.75;0.73;;;;;;;;;;491686;28;1146;-70
2023/12/11 01:05:57;;;;;;;2.10;0.75;;;;;;;;;;491425;28;1004;-71
2023/12/11 01:06:12;;;;;;;2.28;0.77;;;;;;;;;;492340;27;986;-70
2023/12/11 01:06:28;;;;;;;2.20;0.77;;;;;;;;;;493039;27;1102;-70
2023/12/11 01:06:43;;;;;;;1.73;0.68;;;;;;;;;;494134;27;982;-70
2023/12/11 01:06:59;;;;;;;2.17;0.60;;;;;;;;;;493145;27;1321;-70
2023/12/11 01:07:14;;;;;;;2.40;0.75;;;;;;;;;;494079;27;1179;-70
2023/12/11 01:07:30;;;;;;;4.07;1.00;;;;;;;;;;493558;27;1103;-70
2023/12/11 01:07:45;;;;;;;3.90;0.95;;;;;;;;;;493341;27;917;-70
2023/12/11 01:08:01;;;;;;;2.07;0.80;;;;;;;;;;492920;27;1282;-70
2023/12/11 01:08:16;;;;;;;2.13;0.80;;;;;;;;;;493062;27;1093;-70
2023/12/11 01:08:34;;;;;;;2.07;0.67;;;;;;;;;;490932;27;917;-70
2023/12/11 01:08:50;;;;;;;2.70;0.70;;;;;;;;;;493556;27;1204;-70
2023/12/11 01:09:05;;;;;;;3.55;0.77;;;;;;;;;;493547;27;1253;-70
2023/12/11 01:09:21;;;;;;;3.73;0.80;;;;;;;;;;493933;27;1106;-70
2023/12/11 01:09:37;;;;;;;3.00;0.90;;;;;;;;;;490914;28;1157;-70
2023/12/11 01:09:52;;;;;;;3.33;0.80;;;;;;;;;;489791;28;1045;-70
2023/12/11 01:10:09;;;;;;;4.10;0.90;;;;;;;;;;491637;28;1223;-70
2023/12/11 01:10:24;;;;;;;3.75;0.88;;;;;;;;;;491803;28;997;-70
2023/12/11 01:10:40;;;;;;;3.10;0.73;;;;;;;;;;491006;28;921;-70
2023/12/11 01:10:57;;;;;;;2.53;0.75;;;;;;;;;;491891;28;1081;-71
2023/12/11 01:11:13;;;;;;;2.65;0.80;;;;;;;;;;490459;28;1106;-70
2023/12/11 01:11:28;;;;;;;2.20;0.70;;;;;;;;;;491670;27;1036;-70
2023/12/11 01:11:44;;;;;;;2.43;0.77;;;;;;;;;;494166;27;1156;-70
2023/12/11 01:11:59;;;;;;;2.53;0.70;;;;;;;;;;496015;27;1084;-70
2023/12/11 01:12:15;;;;;;;2.10;0.63;;;;;;;;;;495579;27;1019;-70
2023/12/11 01:12:31;;;;;;;2.45;0.80;;;;;;;;;;495744;27;1020;-70
2023/12/11 01:12:47;;;;;;;2.70;0.70;;;;;;;;;;495507;27;2008;-70
2023/12/11 01:13:02;;;;;;;2.30;0.60;;;;;;;;;;493328;27;1087;-70
2023/12/11 01:13:18;;;;;;;2.80;0.70;;;;;;;;;;493469;27;1048;-70
2023/12/11 01:13:33;;;;;;;2.85;0.68;;;;;;;;;;493163;27;1224;-70
2023/12/11 01:13:48;;;;;;;2.23;0.60;;;;;;;;;;493141;27;993;-70
2023/12/11 01:14:04;;;;;;;2.38;0.63;;;;;;;;;;493014;27;1013;-70
2023/12/11 01:14:19;;;;;;;2.23;0.60;;;;;;;;;;491904;28;1181;-70
2023/12/11 01:14:37;;;;;;;1.73;0.60;;;;;;;;;;490904;28;1084;-70
2023/12/11 01:14:53;;;;;;;1.63;0.60;;;;;;;;;;488874;28;2547;-70
2023/12/11 01:15:08;;;;;;;1.95;0.70;;;;;;;;;;489365;28;1040;-70
2023/12/11 01:15:23;;;;;;;2.63;0.80;;;;;;;;;;489820;28;1089;-70
2023/12/11 01:15:39;;;;;;;2.83;0.75;;;;;;;;;;491290;28;917;-70
2023/12/11 01:15:54;;;;;;;3.00;0.83;;;;;;;;;;490852;28;1167;-70
2023/12/11 01:16:10;;;;;;;3.05;0.80;;;;;;;;;;491923;28;1030;-70
2023/12/11 01:16:25;;;;;;;2.87;0.80;;;;;;;;;;493421;27;1068;-70
2023/12/11 01:16:41;;;;;;;2.50;0.70;;;;;;;;;;493665;27;1086;-70
2023/12/11 01:16:56;;;;;;;1.47;0.60;;;;;;;;;;493598;27;1316;-70
2023/12/11 01:17:12;;;;;;;1.83;0.65;;;;;;;;;;495778;27;1332;-70
2023/12/11 01:17:27;;;;;;;2.57;0.73;;;;;;;;;;496013;27;1625;-70
2023/12/11 01:17:43;;;;;;;3.38;0.80;;;;;;;;;;492065;27;1396;-70
2023/12/11 01:17:58;;;;;;;3.57;0.70;;;;;;;;;;493685;27;1275;-70
2023/12/11 01:18:14;;;;;;;2.70;0.80;;;;;;;;;;493607;27;1410;-70
2023/12/11 01:18:29;;;;;;;3.27;0.83;;;;;;;;;;493668;27;1084;-70
2023/12/11 01:18:45;;;;;;;2.90;0.70;;;;;;;;;;493615;27;1371;-70
2023/12/11 01:19:00;;;;;;;3.00;0.73;;;;;;;;;;493757;27;1528;-70
2023/12/11 01:19:16;;;;;;;3.33;0.82;;;;;;;;;;490630;28;1478;-70
2023/12/11 01:19:31;;;;;;;2.83;0.80;;;;;;;;;;491602;27;979;-70
2023/12/11 01:19:47;;;;;;;3.33;0.80;;;;;;;;;;491039;28;1305;-70
2023/12/11 01:20:02;;;;;;;2.67;0.77;;;;;;;;;;491154;28;1306;-70
2023/12/11 01:20:18;;;;;;;3.05;0.80;;;;;;;;;;490612;28;1428;-70
2023/12/11 01:20:33;;;;;;;3.40;0.80;;;;;;;;;;490157;28;1301;-70
2023/12/11 01:20:50;;;;;;;3.30;0.70;;;;;;;;;;490003;28;1329;-70
2023/12/11 01:21:05;;;;;;;3.83;0.73;;;;;;;;;;490830;28;1505;-70
2023/12/11 01:21:21;;;;;;;4.18;0.90;;;;;;;;;;491741;28;1316;-70
2023/12/11 01:21:36;;;;;;;3.00;0.80;;;;;;;;;;491884;28;945;-70
2023/12/11 01:21:52;;;;;;;2.60;0.70;;;;;;;;;;492902;27;1395;-69
2023/12/11 01:22:07;;;;;;;2.70;0.70;;;;;;;;;;492446;27;1653;-70
2023/12/11 01:22:23;;;;;;;2.38;0.70;;;;;;;;;;491960;28;1285;-70
2023/12/11 01:22:38;;;;;;;2.20;0.70;;;;;;;;;;491249;28;1379;-70
2023/12/11 01:22:54;;;;;;;3.05;0.73;;;;;;;;;;491419;28;1327;-70
2023/12/11 01:23:09;;;;;;;3.47;0.80;;;;;;;;;;491183;28;1303;-70
2023/12/11 01:23:25;;;;;;;3.17;0.70;;;;;;;;;;491737;28;1536;-70
2023/12/11 01:23:40;;;;;;;3.23;0.90;;;;;;;;;;489428;28;1333;-70
2023/12/11 01:23:56;;;;;;;2.65;0.90;;;;;;;;;;491372;28;1378;-70
2023/12/11 01:24:12;;;;;;;2.53;0.80;;;;;;;;;;491103;27;1259;-70
2023/12/11 01:24:27;;;;;;;3.22;0.80;;;;;;;;;;493331;27;1482;-70
2023/12/11 01:24:43;;;;;;;3.25;0.77;;;;;;;;;;491772;27;1523;-70
2023/12/11 01:25:02;;;;;;;2.80;0.70;;;;;;;;;;491223;28;1406;-70
2023/12/11 01:25:17;;;;;;;3.25;0.80;;;;;;;;;;492054;28;1443;-70
2023/12/11 01:25:33;;;;;;;3.90;0.90;;;;;;;;;;491069;28;1349;-70
2023/12/11 01:25:49;;;;;;;3.23;0.80;;;;;;;;;;491159;28;1385;-70
2023/12/11 01:26:05;;;;;;;3.30;0.88;;;;;;;;;;491347;28;1370;-70
2023/12/11 01:26:20;;;;;;;3.25;0.88;;;;;;;;;;488870;28;1364;-70
2023/12/11 01:26:36;;;;;;;2.85;0.80;;;;;;;;;;490343;28;979;-70
2023/12/11 01:26:51;;;;;;;3.13;0.80;;;;;;;;;;490508;28;1325;-70
2023/12/11 01:27:06;;;;;;;3.07;0.80;;;;;;;;;;490548;28;1651;-70
2023/12/11 01:27:22;;;;;;;3.35;0.90;;;;;;;;;;490582;28;1431;-70
2023/12/11 01:27:37;;;;;;;3.33;0.87;;;;;;;;;;490440;28;1337;-70
2023/12/11 01:27:53;;;;;;;2.80;0.80;;;;;;;;;;490189;28;1096;-70
2023/12/11 01:28:08;;;;;;;3.07;0.90;;;;;;;;;;487754;28;1503;-70
2023/12/11 01:28:24;;;;;;;3.33;0.90;;;;;;;;;;490454;28;1021;-70
2023/12/11 01:28:39;;;;;;;3.20;0.77;;;;;;;;;;490790;28;997;-70
2023/12/11 01:28:55;;;;;;;3.03;0.70;;;;;;;;;;491636;27;1304;-70
2023/12/11 01:29:10;;;;;;;2.47;0.63;;;;;;;;;;493757;27;1016;-70
2023/12/11 01:29:27;;;;;;;2.90;0.75;;;;;;;;;;492970;27;1366;-70
2023/12/11 01:29:42;;;;;;;2.95;0.80;;;;;;;;;;493051;27;1107;-70
2023/12/11 01:29:58;;;;;;;2.97;0.80;;;;;;;;;;491585;27;1481;-70
2023/12/11 01:30:13;;;;;;;2.90;0.80;;;;;;;;;;493299;27;897;-70
2023/12/11 01:30:29;;;;;;;3.03;0.88;;;;;;;;;;493229;27;1315;-70
2023/12/11 01:30:45;;;;;;;3.38;0.90;;;;;;;;;;493327;27;1388;-70
2023/12/11 01:31:00;;;;;;;2.83;0.80;;;;;;;;;;493653;27;956;-70
2023/12/11 01:31:16;;;;;;;3.05;0.93;;;;;;;;;;493176;27;1335;-70
2023/12/11 01:31:31;;;;;;;3.60;0.93;;;;;;;;;;493428;27;1384;-70
2023/12/11 01:31:47;;;;;;;4.72;0.90;;;;;;;;;;491241;28;1480;-70
2023/12/11 01:32:03;;;;;;;3.93;0.87;;;;;;;;;;489458;28;1999;-70
2023/12/11 01:32:19;;;;;;;3.38;0.82;;;;;;;;;;489153;28;1416;-70
2023/12/11 01:32:34;;;;;;;4.77;0.97;;;;;;;;;;488634;28;1171;-70
2023/12/11 01:32:50;;;;;;;4.88;1.00;;;;;;;;;;489276;28;2327;-70
2023/12/11 01:33:05;;;;;;;4.53;1.00;;;;;;;;;;488676;28;1409;-70
2023/12/11 01:33:21;;;;;;;3.65;0.90;;;;;;;;;;488551;28;1627;-70
2023/12/11 01:33:36;;;;;;;2.47;0.80;;;;;;;;;;488634;28;1345;-70
2023/12/11 01:33:52;;;;;;;2.85;0.90;;;;;;;;;;488415;28;1584;-70
2023/12/11 01:34:07;;;;;;;4.20;1.00;;;;;;;;;;489954;28;1020;-70
2023/12/11 01:34:23;;;;;;;4.25;0.90;;;;;;;;;;490313;28;1239;-70
2023/12/11 01:34:38;;;;;;;2.73;0.70;;;;;;;;;;490326;28;1346;-70
2023/12/11 01:34:53;;;;;;;3.03;0.77;;;;;;;;;;491084;28;1326;-70
2023/12/11 01:35:09;;;;;;;3.40;0.83;;;;;;;;;;491132;28;1501;-70
2023/12/11 01:35:24;;;;;;;3.17;0.75;;;;;;;;;;491533;28;1376;-70
2023/12/11 01:35:40;;;;;;;3.87;0.97;;;;;;;;;;491511;28;1309;-70
2023/12/11 01:35:55;;;;;;;3.93;0.97;;;;;;;;;;493714;27;919;-70
2023/12/11 01:36:11;;;;;;;3.45;0.85;;;;;;;;;;492908;27;1480;-70
2023/12/11 01:36:27;;;;;;;2.97;0.82;;;;;;;;;;495760;27;1400;-70
2023/12/11 01:36:43;;;;;;;3.10;0.80;;;;;;;;;;496140;27;1400;-70
2023/12/11 01:36:59;;;;;;;3.25;0.90;;;;;;;;;;495512;27;971;-70
2023/12/11 01:37:14;;;;;;;2.83;0.90;;;;;;;;;;493741;27;1461;-70